createdAt,value
2018-09-15T00:01:01.110Z,25.2
2018-09-15T00:06:01.109Z,24.4
2018-09-15T00:11:01.174Z,23.5
2018-09-15T00:16:01.106Z,23.4
2018-09-15T00:21:01.176Z,21.7
2018-09-15T00:26:01.110Z,21.4
2018-09-15T00:31:01.243Z,20.2
2018-09-15T00:36:01.108Z,18.8
2018-09-15T00:41:01.172Z,17.2
2018-09-15T00:46:01.136Z,17.0
2018-09-15T00:51:01.171Z,15.6
2018-09-15T00:56:01.101Z,15.3
2018-09-15T01:01:01.102Z,15.0
2018-09-15T01:11:01.100Z,14.4
2018-09-15T01:16:01.101Z,14.2
2018-09-15T01:21:01.167Z,16.2
2018-09-15T01:26:01.223Z,16.4
2018-09-15T01:31:01.170Z,16.7
2018-09-15T01:36:01.106Z,17.2
2018-09-15T01:41:01.242Z,17.8
2018-09-15T01:46:01.131Z,16.2
2018-09-15T01:51:01.176Z,16.4
2018-09-15T01:56:01.115Z,16.3
2018-09-15T02:01:06.173Z,16.5
2018-09-15T02:06:06.104Z,17.1
2018-09-15T02:11:06.163Z,17.2
2018-09-15T02:16:01.105Z,16.9
2018-09-15T02:21:01.105Z,14.8
2018-09-15T02:26:01.097Z,13.0
2018-09-15T02:31:01.166Z,11.0
2018-09-15T02:36:01.102Z,8.5
2018-09-15T02:41:01.162Z,6.6
2018-09-15T02:46:01.109Z,6.1
2018-09-15T02:51:06.176Z,5.4
2018-09-15T02:56:06.112Z,4.4
2018-09-15T03:01:01.176Z,4.2
2018-09-15T03:06:01.113Z,4.0
2018-09-15T03:11:01.110Z,3.8
2018-09-15T03:21:01.097Z,4.4
2018-09-15T03:26:02.146Z,5.0
2018-09-15T03:31:01.232Z,6.1
2018-09-15T03:36:01.101Z,8.0
2018-09-15T03:41:01.104Z,9.0
2018-09-15T03:46:01.107Z,10.0
2018-09-15T03:51:01.172Z,10.8
2018-09-15T03:56:06.110Z,10.7
2018-09-15T04:01:01.238Z,10.2
2018-09-15T04:06:01.107Z,10.4
2018-09-15T04:11:01.233Z,9.9
2018-09-15T04:21:01.173Z,10.0
2018-09-15T04:26:01.118Z,9.4
2018-09-15T04:37:01.093Z,9.0
2018-09-15T04:42:01.103Z,8.2
2018-09-15T04:47:01.165Z,7.6
2018-09-15T04:57:01.173Z,6.4
2018-09-15T05:02:01.075Z,6.5
2018-09-15T05:07:01.260Z,6.9
2018-09-15T05:12:01.100Z,7.4
2018-09-15T05:17:01.170Z,7.2
2018-09-15T05:22:01.091Z,7.7
2018-09-15T05:27:01.099Z,8.2
2018-09-15T05:32:01.070Z,7.4
2018-09-15T05:37:01.234Z,7.5
2018-09-15T05:47:01.099Z,7.0
2018-09-15T05:52:01.105Z,6.3
2018-09-15T05:57:01.173Z,6.2
2018-09-15T06:02:01.071Z,5.6
2018-09-15T06:07:01.240Z,5.4
2018-09-15T06:12:01.081Z,5.6
2018-09-15T06:17:01.178Z,5.4
2018-09-15T06:22:01.101Z,5.5
2018-09-15T06:37:01.184Z,5.9
2018-09-15T06:42:01.107Z,6.1
2018-09-15T06:47:01.112Z,6.2
2018-09-15T06:52:01.077Z,5.8
2018-09-15T06:57:01.128Z,5.6
2018-09-15T07:02:01.104Z,4.6
2018-09-15T07:07:01.378Z,4.3
2018-09-15T07:12:01.107Z,4.0
2018-09-15T07:17:01.160Z,3.8
2018-09-15T07:22:01.215Z,3.9
2018-09-15T07:27:01.235Z,4.0
2018-09-15T07:32:01.277Z,3.7
2018-09-15T07:43:01.096Z,3.9
2018-09-15T07:48:01.164Z,3.8
2018-09-15T07:56:00.739Z,3.8
2018-09-15T08:01:00.843Z,4.8
2018-09-15T08:06:00.716Z,4.3
2018-09-15T08:11:01.232Z,4.5
2018-09-15T08:16:00.719Z,4.3
2018-09-15T08:26:00.874Z,4.0
2018-09-15T08:31:00.837Z,4.1
2018-09-15T08:36:00.769Z,3.7
2018-09-15T08:41:00.836Z,3.8
2018-09-15T08:46:00.771Z,4.0
2018-09-15T08:51:00.899Z,3.8
2018-09-15T08:56:00.783Z,3.6
2018-09-15T09:01:01.102Z,3.4
2018-09-15T09:11:00.872Z,3.2
2018-09-15T09:16:00.746Z,3.3
2018-09-15T09:21:01.126Z,3.2
2018-09-15T09:26:01.357Z,3.4
2018-09-15T09:31:00.910Z,3.2
2018-09-15T09:36:00.791Z,2.8
2018-09-15T09:41:00.855Z,2.7
2018-09-15T09:46:00.841Z,2.8
2018-09-15T09:51:00.856Z,2.7
2018-09-15T09:56:00.789Z,2.8
2018-09-15T10:01:00.932Z,3.0
2018-09-15T10:06:00.805Z,2.8
2018-09-15T10:11:00.870Z,2.7
2018-09-15T10:16:01.080Z,3.0
2018-09-15T10:26:00.773Z,2.9
2018-09-15T10:41:00.907Z,2.6
2018-09-15T10:46:00.861Z,2.5
2018-09-15T10:51:00.852Z,2.6
2018-09-15T10:56:00.785Z,2.8
2018-09-15T11:01:00.855Z,2.9
2018-09-15T11:06:00.853Z,2.8
2018-09-15T11:11:00.921Z,3.2
2018-09-15T11:16:00.802Z,2.9
2018-09-15T11:26:00.925Z,2.8
2018-09-15T11:31:00.861Z,3.2
2018-09-15T11:36:00.796Z,2.6
2018-09-15T11:41:01.164Z,2.8
2018-09-15T11:46:00.802Z,3.1
2018-09-15T11:51:00.802Z,3.2
2018-09-15T11:56:00.804Z,3.0
2018-09-15T12:01:00.806Z,3.2
2018-09-15T12:06:00.834Z,3.0
2018-09-15T12:16:00.874Z,2.8
2018-09-15T12:21:00.879Z,2.6
2018-09-15T12:26:00.815Z,2.4
2018-09-15T12:31:00.884Z,2.2
2018-09-15T12:36:00.861Z,2.0
2018-09-15T12:46:00.832Z,2.4
2018-09-15T12:56:00.985Z,3.0
2018-09-15T13:01:00.966Z,2.8
2018-09-15T13:11:00.970Z,2.6
2018-09-15T13:21:00.909Z,2.4
2018-09-15T13:26:00.883Z,2.6
2018-09-15T13:36:00.982Z,2.4
2018-09-15T13:41:00.917Z,2.5
2018-09-15T13:51:00.947Z,2.6
2018-09-15T13:56:00.969Z,3.0
2018-09-15T14:01:00.953Z,3.5
2018-09-15T14:06:00.897Z,3.6
2018-09-15T14:16:00.960Z,3.7
2018-09-15T14:21:00.973Z,3.4
2018-09-15T14:26:00.907Z,3.0
2018-09-15T14:31:00.905Z,3.2
2018-09-15T14:41:01.048Z,3.1
2018-09-15T14:51:00.985Z,3.4
2018-09-15T14:56:00.918Z,3.2
2018-09-15T15:06:00.989Z,3.6
2018-09-15T15:11:01.163Z,3.9
2018-09-15T15:16:00.925Z,4.0
2018-09-15T15:21:00.998Z,4.2
2018-09-15T15:31:01.009Z,3.8
2018-09-15T15:36:00.941Z,3.5
2018-09-15T15:41:00.940Z,3.0
2018-09-15T15:46:00.934Z,2.6
2018-09-15T15:51:01.039Z,2.4
2018-09-15T15:56:00.935Z,2.3
2018-09-15T16:01:01.004Z,2.8
2018-09-15T16:06:00.968Z,4.1
2018-09-15T16:11:01.111Z,5.6
2018-09-15T16:16:00.961Z,6.2
2018-09-15T16:21:01.026Z,6.5
2018-09-15T16:31:01.124Z,5.9
2018-09-15T16:36:00.961Z,4.9
2018-09-15T16:41:01.101Z,5.0
2018-09-15T16:56:01.003Z,4.8
2018-09-15T17:11:01.012Z,5.0
2018-09-15T17:21:01.080Z,4.6
2018-09-15T17:26:00.950Z,4.5
2018-09-15T17:31:01.090Z,4.6
2018-09-15T17:36:00.954Z,4.4
2018-09-15T17:41:01.021Z,4.0
2018-09-15T17:46:00.959Z,4.6
2018-09-15T17:51:01.087Z,5.6
2018-09-15T17:56:00.984Z,5.2
2018-09-15T18:01:01.031Z,5.4
2018-09-15T18:06:00.977Z,5.6
2018-09-15T18:16:00.972Z,5.4
2018-09-15T18:21:01.101Z,6.0
2018-09-15T18:31:00.975Z,6.2
2018-09-15T18:36:01.033Z,5.6
2018-09-15T18:41:01.049Z,5.4
2018-09-15T18:46:00.983Z,5.6
2018-09-15T18:51:01.113Z,6.5
2018-09-15T18:56:00.994Z,7.3
2018-09-15T19:01:00.994Z,7.9
2018-09-15T19:06:01.020Z,8.2
2018-09-15T19:11:01.057Z,7.6
2018-09-15T19:16:00.996Z,8.3
2018-09-15T19:21:01.146Z,9.3
2018-09-15T19:26:01.038Z,9.7
2018-09-15T19:31:01.105Z,10.1
2018-09-15T19:36:01.050Z,10.8
2018-09-15T19:41:01.180Z,10.1
2018-09-15T19:46:01.041Z,8.9
2018-09-15T19:51:01.016Z,8.7
2018-09-15T19:56:01.014Z,8.3
2018-09-15T20:01:01.146Z,8.2
2018-09-15T20:06:01.098Z,8.0
2018-09-15T20:16:01.161Z,8.2
2018-09-15T20:35:00.541Z,0.8
2018-09-15T20:40:00.378Z,4.4
2018-09-15T20:45:00.710Z,6.2
2018-09-15T20:50:00.556Z,7.9
2018-09-15T20:55:00.380Z,8.8
2018-09-15T21:00:00.384Z,10.3
2018-09-15T21:05:00.388Z,11.1
2018-09-15T21:10:00.391Z,11.6
2018-09-15T21:15:00.391Z,11.0
2018-09-15T21:25:00.715Z,11.5
2018-09-15T21:30:00.399Z,10.8
2018-09-15T21:35:00.431Z,10.0
2018-09-15T21:40:00.403Z,9.8
2018-09-15T21:45:00.556Z,9.8
2018-09-15T21:50:00.475Z,10.1
2018-09-15T21:55:00.398Z,10.0
2018-09-15T22:00:00.378Z,10.6
2018-09-15T22:05:00.497Z,10.8
2018-09-15T22:10:00.964Z,10.6
2018-09-15T22:15:00.680Z,10.3
2018-09-15T22:20:00.815Z,10.2
2018-09-15T22:25:00.703Z,9.5
2018-09-15T22:30:00.425Z,9.1
2018-09-15T22:35:00.424Z,8.0
2018-09-15T22:40:00.558Z,7.5
2018-09-15T22:45:00.522Z,7.5
2018-09-15T22:55:00.656Z,7.4
2018-09-15T23:00:00.494Z,7.1
2018-09-15T23:05:00.396Z,6.9
2018-09-15T23:10:00.417Z,6.7
2018-09-15T23:15:00.453Z,6.4
2018-09-15T23:25:00.481Z,6.8
2018-09-15T23:30:00.920Z,6.9
2018-09-15T23:35:00.413Z,7.4
2018-09-15T23:45:00.481Z,7.4
2018-09-15T23:55:00.973Z,7.3
